sensor_id;sensor_type;location;lat;lon;timestamp;P1;durP1;ratioP1;P2;durP2;ratioP2
72053;SDS011;59918;51.280;7.950;2022-12-16T00:01:52;2.72;;;1.10;;
72053;SDS011;59918;51.280;7.950;2022-12-16T00:04:17;2.75;;;1.52;;
72053;SDS011;59918;51.280;7.950;2022-12-16T00:06:45;2.55;;;1.55;;
72053;SDS011;59918;51.280;7.950;2022-12-16T00:09:10;3.88;;;1.75;;
72053;SDS011;59918;51.280;7.950;2022-12-16T00:11:35;2.25;;;1.95;;
72053;SDS011;59918;51.280;7.950;2022-12-16T00:14:01;3.50;;;1.63;;
72053;SDS011;59918;51.280;7.950;2022-12-16T00:16:26;2.58;;;1.95;;
72053;SDS011;59918;51.280;7.950;2022-12-16T00:18:52;2.20;;;1.45;;
72053;SDS011;59918;51.280;7.950;2022-12-16T00:21:17;1.60;;;1.40;;
72053;SDS011;59918;51.280;7.950;2022-12-16T00:23:43;2.63;;;1.55;;
72053;SDS011;59918;51.280;7.950;2022-12-16T00:26:09;2.30;;;1.50;;
72053;SDS011;59918;51.280;7.950;2022-12-16T00:28:35;3.40;;;1.60;;
72053;SDS011;59918;51.280;7.950;2022-12-16T00:31:02;2.95;;;1.80;;
72053;SDS011;59918;51.280;7.950;2022-12-16T00:33:27;5.15;;;1.60;;
72053;SDS011;59918;51.280;7.950;2022-12-16T00:35:53;2.63;;;1.30;;
72053;SDS011;59918;51.280;7.950;2022-12-16T00:38:19;3.08;;;1.38;;
72053;SDS011;59918;51.280;7.950;2022-12-16T00:40:45;4.03;;;2.00;;
72053;SDS011;59918;51.280;7.950;2022-12-16T00:43:10;4.38;;;1.45;;
72053;SDS011;59918;51.280;7.950;2022-12-16T00:45:36;7.05;;;1.88;;
72053;SDS011;59918;51.280;7.950;2022-12-16T00:48:02;6.35;;;1.60;;
72053;SDS011;59918;51.280;7.950;2022-12-16T00:50:28;3.30;;;1.38;;
72053;SDS011;59918;51.280;7.950;2022-12-16T00:52:53;5.05;;;1.90;;
72053;SDS011;59918;51.280;7.950;2022-12-16T00:55:18;2.97;;;1.70;;
72053;SDS011;59918;51.280;7.950;2022-12-16T00:57:44;2.72;;;1.73;;
72053;SDS011;59918;51.280;7.950;2022-12-16T01:00:10;6.00;;;1.70;;
72053;SDS011;59918;51.280;7.950;2022-12-16T01:02:41;5.25;;;1.23;;
72053;SDS011;59918;51.280;7.950;2022-12-16T01:05:11;3.25;;;1.42;;
72053;SDS011;59918;51.280;7.950;2022-12-16T01:07:39;1.90;;;1.10;;
72053;SDS011;59918;51.280;7.950;2022-12-16T01:10:05;3.33;;;1.30;;
72053;SDS011;59918;51.280;7.950;2022-12-16T01:12:32;1.58;;;1.33;;
72053;SDS011;59918;51.280;7.950;2022-12-16T01:14:58;5.28;;;1.27;;
72053;SDS011;59918;51.280;7.950;2022-12-16T01:17:23;8.32;;;1.35;;
72053;SDS011;59918;51.280;7.950;2022-12-16T01:19:49;3.05;;;1.15;;
72053;SDS011;59918;51.280;7.950;2022-12-16T01:22:14;2.20;;;1.23;;
72053;SDS011;59918;51.280;7.950;2022-12-16T01:24:39;4.13;;;1.63;;
72053;SDS011;59918;51.280;7.950;2022-12-16T01:27:04;3.50;;;3.20;;
72053;SDS011;59918;51.280;7.950;2022-12-16T01:29:30;3.45;;;1.95;;
72053;SDS011;59918;51.280;7.950;2022-12-16T01:31:55;1.83;;;1.58;;
72053;SDS011;59918;51.280;7.950;2022-12-16T01:34:20;1.45;;;1.30;;
72053;SDS011;59918;51.280;7.950;2022-12-16T01:36:45;3.55;;;1.20;;
72053;SDS011;59918;51.280;7.950;2022-12-16T01:39:11;2.83;;;1.40;;
72053;SDS011;59918;51.280;7.950;2022-12-16T01:41:36;3.28;;;0.95;;
72053;SDS011;59918;51.280;7.950;2022-12-16T01:44:19;1.95;;;0.90;;
72053;SDS011;59918;51.280;7.950;2022-12-16T01:46:50;4.50;;;1.00;;
72053;SDS011;59918;51.280;7.950;2022-12-16T01:49:20;6.18;;;2.00;;
72053;SDS011;59918;51.280;7.950;2022-12-16T01:51:50;4.47;;;2.40;;
72053;SDS011;59918;51.280;7.950;2022-12-16T01:54:18;6.88;;;2.38;;
72053;SDS011;59918;51.280;7.950;2022-12-16T01:56:50;10.65;;;2.67;;
72053;SDS011;59918;51.280;7.950;2022-12-16T01:59:24;3.08;;;1.13;;
72053;SDS011;59918;51.280;7.950;2022-12-16T02:01:52;4.00;;;1.10;;
72053;SDS011;59918;51.280;7.950;2022-12-16T02:04:19;2.13;;;0.85;;
72053;SDS011;59918;51.280;7.950;2022-12-16T02:06:45;1.63;;;0.77;;
72053;SDS011;59918;51.280;7.950;2022-12-16T02:09:11;1.70;;;0.90;;
72053;SDS011;59918;51.280;7.950;2022-12-16T02:29:00;2.83;;;1.20;;
72053;SDS011;59918;51.280;7.950;2022-12-16T02:39:38;8.57;;;1.80;;
72053;SDS011;59918;51.280;7.950;2022-12-16T02:47:08;1.60;;;1.23;;
72053;SDS011;59918;51.280;7.950;2022-12-16T02:51:58;2.97;;;1.50;;
72053;SDS011;59918;51.280;7.950;2022-12-16T02:54:24;2.67;;;1.73;;
72053;SDS011;59918;51.280;7.950;2022-12-16T03:04:44;2.22;;;1.48;;
72053;SDS011;59918;51.280;7.950;2022-12-16T03:07:15;4.88;;;2.25;;
72053;SDS011;59918;51.280;7.950;2022-12-16T03:09:42;5.70;;;2.63;;
72053;SDS011;59918;51.280;7.950;2022-12-16T03:12:11;2.95;;;1.83;;
72053;SDS011;59918;51.280;7.950;2022-12-16T03:14:38;3.65;;;1.55;;
72053;SDS011;59918;51.280;7.950;2022-12-16T03:17:07;3.40;;;1.40;;
72053;SDS011;59918;51.280;7.950;2022-12-16T03:19:33;1.92;;;1.42;;
72053;SDS011;59918;51.280;7.950;2022-12-16T03:22:16;7.68;;;1.55;;
72053;SDS011;59918;51.280;7.950;2022-12-16T03:24:44;2.25;;;1.35;;
72053;SDS011;59918;51.280;7.950;2022-12-16T03:27:27;6.35;;;1.58;;
72053;SDS011;59918;51.280;7.950;2022-12-16T03:32:49;1.33;;;1.20;;
72053;SDS011;59918;51.280;7.950;2022-12-16T03:38:09;4.40;;;1.00;;
72053;SDS011;59918;51.280;7.950;2022-12-16T03:40:36;6.00;;;1.27;;
72053;SDS011;59918;51.280;7.950;2022-12-16T03:43:05;3.97;;;0.88;;
72053;SDS011;59918;51.280;7.950;2022-12-16T03:45:34;1.98;;;1.00;;
72053;SDS011;59918;51.280;7.950;2022-12-16T03:48:02;0.65;;;0.65;;
72053;SDS011;59918;51.280;7.950;2022-12-16T03:50:31;1.33;;;1.08;;
72053;SDS011;59918;51.280;7.950;2022-12-16T03:52:58;1.58;;;0.93;;
72053;SDS011;59918;51.280;7.950;2022-12-16T03:55:23;1.25;;;0.98;;
72053;SDS011;59918;51.280;7.950;2022-12-16T03:57:49;2.78;;;0.80;;
72053;SDS011;59918;51.280;7.950;2022-12-16T04:00:14;5.03;;;2.10;;
72053;SDS011;59918;51.280;7.950;2022-12-16T04:02:40;8.63;;;2.78;;
72053;SDS011;59918;51.280;7.950;2022-12-16T04:05:06;7.00;;;2.88;;
72053;SDS011;59918;51.280;7.950;2022-12-16T04:07:32;2.92;;;1.55;;
72053;SDS011;59918;51.280;7.950;2022-12-16T04:09:57;4.75;;;1.23;;
72053;SDS011;59918;51.280;7.950;2022-12-16T04:12:22;4.45;;;1.33;;
72053;SDS011;59918;51.280;7.950;2022-12-16T04:14:48;5.25;;;2.63;;
72053;SDS011;59918;51.280;7.950;2022-12-16T04:17:13;6.65;;;2.72;;
72053;SDS011;59918;51.280;7.950;2022-12-16T04:19:38;2.45;;;1.23;;
72053;SDS011;59918;51.280;7.950;2022-12-16T04:22:04;3.58;;;1.10;;
72053;SDS011;59918;51.280;7.950;2022-12-16T04:24:34;9.85;;;1.77;;
72053;SDS011;59918;51.280;7.950;2022-12-16T04:27:00;4.97;;;1.38;;
72053;SDS011;59918;51.280;7.950;2022-12-16T04:29:25;8.32;;;2.15;;
72053;SDS011;59918;51.280;7.950;2022-12-16T04:31:50;4.75;;;1.48;;
72053;SDS011;59918;51.280;7.950;2022-12-16T04:34:16;4.00;;;1.70;;
72053;SDS011;59918;51.280;7.950;2022-12-16T04:36:41;5.80;;;2.00;;
72053;SDS011;59918;51.280;7.950;2022-12-16T04:39:06;1.67;;;1.10;;
72053;SDS011;59918;51.280;7.950;2022-12-16T04:41:31;1.63;;;1.52;;
72053;SDS011;59918;51.280;7.950;2022-12-16T04:43:57;2.15;;;1.48;;
72053;SDS011;59918;51.280;7.950;2022-12-16T04:46:22;2.03;;;1.08;;
72053;SDS011;59918;51.280;7.950;2022-12-16T04:48:48;3.75;;;1.55;;
72053;SDS011;59918;51.280;7.950;2022-12-16T04:51:13;5.70;;;1.33;;
72053;SDS011;59918;51.280;7.950;2022-12-16T04:53:38;3.88;;;1.30;;
72053;SDS011;59918;51.280;7.950;2022-12-16T04:56:04;2.85;;;1.25;;
72053;SDS011;59918;51.280;7.950;2022-12-16T04:58:29;1.92;;;1.50;;
72053;SDS011;59918;51.280;7.950;2022-12-16T05:00:54;13.73;;;3.20;;
72053;SDS011;59918;51.280;7.950;2022-12-16T05:03:20;8.32;;;3.30;;
72053;SDS011;59918;51.280;7.950;2022-12-16T05:05:45;9.00;;;2.05;;
72053;SDS011;59918;51.280;7.950;2022-12-16T05:08:10;10.25;;;3.10;;
72053;SDS011;59918;51.280;7.950;2022-12-16T05:10:35;8.68;;;3.33;;
72053;SDS011;59918;51.280;7.950;2022-12-16T05:13:01;6.45;;;1.88;;
72053;SDS011;59918;51.280;7.950;2022-12-16T05:15:26;2.65;;;1.35;;
72053;SDS011;59918;51.280;7.950;2022-12-16T05:17:51;5.28;;;1.80;;
72053;SDS011;59918;51.280;7.950;2022-12-16T05:20:16;2.15;;;1.25;;
72053;SDS011;59918;51.280;7.950;2022-12-16T05:22:42;1.85;;;1.38;;
72053;SDS011;59918;51.280;7.950;2022-12-16T05:25:07;5.20;;;1.77;;
72053;SDS011;59918;51.280;7.950;2022-12-16T05:27:33;5.95;;;1.65;;
72053;SDS011;59918;51.280;7.950;2022-12-16T05:29:58;6.05;;;2.25;;
72053;SDS011;59918;51.280;7.950;2022-12-16T05:32:24;5.43;;;2.55;;
72053;SDS011;59918;51.280;7.950;2022-12-16T05:34:49;10.75;;;3.47;;
72053;SDS011;59918;51.280;7.950;2022-12-16T05:37:14;9.70;;;4.85;;
72053;SDS011;59918;51.280;7.950;2022-12-16T05:39:39;13.20;;;3.47;;
72053;SDS011;59918;51.280;7.950;2022-12-16T05:42:05;6.32;;;3.22;;
72053;SDS011;59918;51.280;7.950;2022-12-16T05:44:30;6.85;;;3.03;;
72053;SDS011;59918;51.280;7.950;2022-12-16T05:46:55;9.73;;;3.83;;
72053;SDS011;59918;51.280;7.950;2022-12-16T05:49:28;9.77;;;3.90;;
72053;SDS011;59918;51.280;7.950;2022-12-16T05:51:53;8.50;;;3.58;;
72053;SDS011;59918;51.280;7.950;2022-12-16T05:54:18;8.38;;;3.13;;
72053;SDS011;59918;51.280;7.950;2022-12-16T05:56:44;5.82;;;3.08;;
72053;SDS011;59918;51.280;7.950;2022-12-16T05:59:09;5.38;;;2.95;;
72053;SDS011;59918;51.280;7.950;2022-12-16T06:01:34;5.43;;;3.10;;
72053;SDS011;59918;51.280;7.950;2022-12-16T06:03:59;6.18;;;3.08;;
72053;SDS011;59918;51.280;7.950;2022-12-16T06:06:24;5.25;;;2.75;;
72053;SDS011;59918;51.280;7.950;2022-12-16T06:08:50;10.98;;;2.97;;
72053;SDS011;59918;51.280;7.950;2022-12-16T06:11:15;5.55;;;2.88;;
72053;SDS011;59918;51.280;7.950;2022-12-16T06:13:40;5.40;;;2.60;;
72053;SDS011;59918;51.280;7.950;2022-12-16T06:16:06;9.00;;;2.70;;
72053;SDS011;59918;51.280;7.950;2022-12-16T06:18:31;7.45;;;2.85;;
72053;SDS011;59918;51.280;7.950;2022-12-16T06:20:56;7.25;;;2.78;;
72053;SDS011;59918;51.280;7.950;2022-12-16T06:23:25;8.35;;;2.15;;
72053;SDS011;59918;51.280;7.950;2022-12-16T06:25:51;6.07;;;2.65;;
72053;SDS011;59918;51.280;7.950;2022-12-16T06:28:16;4.18;;;2.10;;
72053;SDS011;59918;51.280;7.950;2022-12-16T06:30:41;3.78;;;2.28;;
72053;SDS011;59918;51.280;7.950;2022-12-16T06:33:06;7.10;;;2.50;;
72053;SDS011;59918;51.280;7.950;2022-12-16T06:35:31;9.38;;;2.97;;
72053;SDS011;59918;51.280;7.950;2022-12-16T06:37:57;8.57;;;2.40;;
72053;SDS011;59918;51.280;7.950;2022-12-16T06:40:22;5.80;;;2.50;;
72053;SDS011;59918;51.280;7.950;2022-12-16T06:42:47;4.55;;;2.33;;
72053;SDS011;59918;51.280;7.950;2022-12-16T06:45:12;6.22;;;2.45;;
72053;SDS011;59918;51.280;7.950;2022-12-16T06:47:38;4.00;;;2.13;;
72053;SDS011;59918;51.280;7.950;2022-12-16T06:50:03;7.90;;;2.55;;
72053;SDS011;59918;51.280;7.950;2022-12-16T06:52:29;7.45;;;3.17;;
72053;SDS011;59918;51.280;7.950;2022-12-16T06:54:54;3.20;;;2.33;;
72053;SDS011;59918;51.280;7.950;2022-12-16T06:57:20;4.70;;;2.60;;
72053;SDS011;59918;51.280;7.950;2022-12-16T06:59:45;3.78;;;2.90;;
72053;SDS011;59918;51.280;7.950;2022-12-16T07:02:10;60.63;;;22.52;;
72053;SDS011;59918;51.280;7.950;2022-12-16T07:04:36;17.02;;;8.35;;
72053;SDS011;59918;51.280;7.950;2022-12-16T07:07:01;7.55;;;3.67;;
72053;SDS011;59918;51.280;7.950;2022-12-16T07:09:26;7.80;;;4.03;;
72053;SDS011;59918;51.280;7.950;2022-12-16T07:11:51;17.45;;;6.13;;
72053;SDS011;59918;51.280;7.950;2022-12-16T07:14:17;41.45;;;15.98;;
72053;SDS011;59918;51.280;7.950;2022-12-16T07:16:42;25.60;;;11.40;;
72053;SDS011;59918;51.280;7.950;2022-12-16T07:19:07;13.50;;;5.88;;
72053;SDS011;59918;51.280;7.950;2022-12-16T07:21:32;13.57;;;6.70;;
72053;SDS011;59918;51.280;7.950;2022-12-16T07:23:58;18.15;;;6.50;;
72053;SDS011;59918;51.280;7.950;2022-12-16T07:26:23;8.10;;;3.65;;
72053;SDS011;59918;51.280;7.950;2022-12-16T07:28:48;14.52;;;4.88;;
72053;SDS011;59918;51.280;7.950;2022-12-16T07:31:13;10.63;;;3.63;;
72053;SDS011;59918;51.280;7.950;2022-12-16T07:33:38;4.50;;;2.28;;
72053;SDS011;59918;51.280;7.950;2022-12-16T07:36:04;3.55;;;2.60;;
72053;SDS011;59918;51.280;7.950;2022-12-16T07:38:29;5.60;;;2.78;;
72053;SDS011;59918;51.280;7.950;2022-12-16T07:40:55;10.18;;;2.92;;
72053;SDS011;59918;51.280;7.950;2022-12-16T07:43:20;5.80;;;2.33;;
72053;SDS011;59918;51.280;7.950;2022-12-16T07:45:47;7.78;;;3.25;;
72053;SDS011;59918;51.280;7.950;2022-12-16T07:48:13;13.70;;;3.13;;
72053;SDS011;59918;51.280;7.950;2022-12-16T07:50:38;8.32;;;2.42;;
72053;SDS011;59918;51.280;7.950;2022-12-16T07:53:03;8.07;;;2.88;;
72053;SDS011;59918;51.280;7.950;2022-12-16T07:55:28;6.43;;;2.47;;
72053;SDS011;59918;51.280;7.950;2022-12-16T07:57:54;9.02;;;2.78;;
72053;SDS011;59918;51.280;7.950;2022-12-16T08:00:19;8.20;;;2.17;;
72053;SDS011;59918;51.280;7.950;2022-12-16T08:02:44;4.47;;;2.30;;
72053;SDS011;59918;51.280;7.950;2022-12-16T08:05:09;5.35;;;2.75;;
72053;SDS011;59918;51.280;7.950;2022-12-16T08:07:37;10.15;;;3.00;;
72053;SDS011;59918;51.280;7.950;2022-12-16T08:10:03;6.03;;;2.97;;
72053;SDS011;59918;51.280;7.950;2022-12-16T08:12:29;3.00;;;2.17;;
72053;SDS011;59918;51.280;7.950;2022-12-16T08:14:56;10.25;;;2.47;;
72053;SDS011;59918;51.280;7.950;2022-12-16T08:17:22;8.88;;;3.05;;
72053;SDS011;59918;51.280;7.950;2022-12-16T08:19:47;9.45;;;2.92;;
72053;SDS011;59918;51.280;7.950;2022-12-16T08:22:12;5.28;;;2.30;;
72053;SDS011;59918;51.280;7.950;2022-12-16T08:24:37;4.43;;;2.40;;
72053;SDS011;59918;51.280;7.950;2022-12-16T08:27:02;9.93;;;4.80;;
72053;SDS011;59918;51.280;7.950;2022-12-16T08:29:28;13.68;;;5.63;;
72053;SDS011;59918;51.280;7.950;2022-12-16T08:31:53;10.77;;;5.38;;
72053;SDS011;59918;51.280;7.950;2022-12-16T08:34:18;13.10;;;6.35;;
72053;SDS011;59918;51.280;7.950;2022-12-16T08:36:44;13.85;;;8.02;;
72053;SDS011;59918;51.280;7.950;2022-12-16T08:39:09;13.40;;;7.35;;
72053;SDS011;59918;51.280;7.950;2022-12-16T08:41:34;33.50;;;12.73;;
72053;SDS011;59918;51.280;7.950;2022-12-16T08:43:59;25.73;;;11.88;;
72053;SDS011;59918;51.280;7.950;2022-12-16T08:46:25;23.75;;;9.68;;
72053;SDS011;59918;51.280;7.950;2022-12-16T08:48:50;19.50;;;9.45;;
72053;SDS011;59918;51.280;7.950;2022-12-16T08:51:15;20.20;;;9.52;;
72053;SDS011;59918;51.280;7.950;2022-12-16T08:53:41;25.20;;;10.75;;
72053;SDS011;59918;51.280;7.950;2022-12-16T08:56:06;22.05;;;8.77;;
72053;SDS011;59918;51.280;7.950;2022-12-16T08:58:31;29.23;;;10.43;;
72053;SDS011;59918;51.280;7.950;2022-12-16T09:00:56;21.05;;;9.55;;
72053;SDS011;59918;51.280;7.950;2022-12-16T09:03:22;18.23;;;7.72;;
72053;SDS011;59918;51.280;7.950;2022-12-16T09:05:47;22.10;;;8.80;;
72053;SDS011;59918;51.280;7.950;2022-12-16T09:08:12;24.27;;;10.60;;
72053;SDS011;59918;51.280;7.950;2022-12-16T09:10:37;22.48;;;8.43;;
72053;SDS011;59918;51.280;7.950;2022-12-16T09:13:06;17.75;;;7.97;;
72053;SDS011;59918;51.280;7.950;2022-12-16T09:15:33;12.70;;;6.40;;
72053;SDS011;59918;51.280;7.950;2022-12-16T09:17:58;21.02;;;8.88;;
72053;SDS011;59918;51.280;7.950;2022-12-16T09:20:23;32.40;;;13.90;;
72053;SDS011;59918;51.280;7.950;2022-12-16T09:22:48;30.70;;;13.70;;
72053;SDS011;59918;51.280;7.950;2022-12-16T09:25:14;24.33;;;10.32;;
72053;SDS011;59918;51.280;7.950;2022-12-16T09:27:39;25.88;;;11.52;;
72053;SDS011;59918;51.280;7.950;2022-12-16T09:30:04;29.58;;;11.98;;
72053;SDS011;59918;51.280;7.950;2022-12-16T09:32:30;18.05;;;8.20;;
72053;SDS011;59918;51.280;7.950;2022-12-16T09:34:55;18.35;;;9.10;;
72053;SDS011;59918;51.280;7.950;2022-12-16T09:37:20;13.48;;;7.90;;
72053;SDS011;59918;51.280;7.950;2022-12-16T09:39:46;14.85;;;7.88;;
72053;SDS011;59918;51.280;7.950;2022-12-16T09:42:33;9.98;;;6.07;;
72053;SDS011;59918;51.280;7.950;2022-12-16T09:48:01;9.23;;;4.57;;
72053;SDS011;59918;51.280;7.950;2022-12-16T09:51:02;13.50;;;7.82;;
72053;SDS011;59918;51.280;7.950;2022-12-16T09:53:30;26.13;;;16.30;;
72053;SDS011;59918;51.280;7.950;2022-12-16T09:56:00;13.20;;;6.50;;
72053;SDS011;59918;51.280;7.950;2022-12-16T09:58:39;12.43;;;7.68;;
72053;SDS011;59918;51.280;7.950;2022-12-16T10:01:08;5.90;;;4.28;;
72053;SDS011;59918;51.280;7.950;2022-12-16T10:03:39;6.13;;;3.70;;
72053;SDS011;59918;51.280;7.950;2022-12-16T10:06:07;12.07;;;3.65;;
72053;SDS011;59918;51.280;7.950;2022-12-16T10:08:43;6.05;;;4.32;;
72053;SDS011;59918;51.280;7.950;2022-12-16T10:15:35;9.50;;;6.35;;
72053;SDS011;59918;51.280;7.950;2022-12-16T10:17:45;12.60;;;7.93;;
72053;SDS011;59918;51.280;7.950;2022-12-16T10:20:23;14.18;;;6.20;;
72053;SDS011;59918;51.280;7.950;2022-12-16T10:23:10;8.30;;;4.63;;
72053;SDS011;59918;51.280;7.950;2022-12-16T10:25:44;7.95;;;4.53;;
72053;SDS011;59918;51.280;7.950;2022-12-16T10:30:41;5.78;;;4.32;;
72053;SDS011;59918;51.280;7.950;2022-12-16T10:33:08;8.63;;;4.80;;
72053;SDS011;59918;51.280;7.950;2022-12-16T10:38:19;11.60;;;5.53;;
72053;SDS011;59918;51.280;7.950;2022-12-16T10:40:47;9.60;;;6.32;;
72053;SDS011;59918;51.280;7.950;2022-12-16T10:43:15;5.13;;;4.05;;
72053;SDS011;59918;51.280;7.950;2022-12-16T10:45:44;4.95;;;3.67;;
72053;SDS011;59918;51.280;7.950;2022-12-16T10:48:12;5.82;;;3.38;;
72053;SDS011;59918;51.280;7.950;2022-12-16T10:50:40;7.20;;;3.33;;
72053;SDS011;59918;51.280;7.950;2022-12-16T10:53:15;5.00;;;3.22;;
72053;SDS011;59918;51.280;7.950;2022-12-16T10:58:42;3.78;;;2.83;;
72053;SDS011;59918;51.280;7.950;2022-12-16T11:01:19;5.13;;;3.05;;
72053;SDS011;59918;51.280;7.950;2022-12-16T11:03:46;8.05;;;3.15;;
72053;SDS011;59918;51.280;7.950;2022-12-16T11:06:12;4.30;;;3.60;;
72053;SDS011;59918;51.280;7.950;2022-12-16T11:08:43;4.22;;;2.65;;
72053;SDS011;59918;51.280;7.950;2022-12-16T11:13:55;6.82;;;3.63;;
72053;SDS011;59918;51.280;7.950;2022-12-16T11:16:37;3.90;;;2.75;;
72053;SDS011;59918;51.280;7.950;2022-12-16T11:19:03;4.10;;;2.72;;
72053;SDS011;59918;51.280;7.950;2022-12-16T11:21:28;5.10;;;3.53;;
72053;SDS011;59918;51.280;7.950;2022-12-16T11:24:03;8.63;;;3.45;;
72053;SDS011;59918;51.280;7.950;2022-12-16T11:26:35;4.70;;;2.87;;
72053;SDS011;59918;51.280;7.950;2022-12-16T11:29:16;6.50;;;3.53;;
72053;SDS011;59918;51.280;7.950;2022-12-16T11:31:42;4.13;;;3.13;;
72053;SDS011;59918;51.280;7.950;2022-12-16T11:34:07;4.97;;;3.47;;
72053;SDS011;59918;51.280;7.950;2022-12-16T11:36:33;5.28;;;3.72;;
72053;SDS011;59918;51.280;7.950;2022-12-16T11:39:00;8.23;;;4.20;;
72053;SDS011;59918;51.280;7.950;2022-12-16T11:41:31;7.53;;;4.05;;
72053;SDS011;59918;51.280;7.950;2022-12-16T11:44:00;9.00;;;4.03;;
72053;SDS011;59918;51.280;7.950;2022-12-16T11:46:27;7.35;;;3.95;;
72053;SDS011;59918;51.280;7.950;2022-12-16T11:48:57;8.00;;;3.80;;
72053;SDS011;59918;51.280;7.950;2022-12-16T11:51:25;7.05;;;4.05;;
72053;SDS011;59918;51.280;7.950;2022-12-16T11:56:43;6.15;;;3.30;;
72053;SDS011;59918;51.280;7.950;2022-12-16T11:59:23;5.85;;;3.33;;
72053;SDS011;59918;51.280;7.950;2022-12-16T12:02:14;3.63;;;2.55;;
72053;SDS011;59918;51.280;7.950;2022-12-16T12:04:46;4.82;;;2.67;;
72053;SDS011;59918;51.280;7.950;2022-12-16T12:07:24;3.78;;;3.05;;
72053;SDS011;59918;51.280;7.950;2022-12-16T12:12:47;5.00;;;2.40;;
72053;SDS011;59918;51.280;7.950;2022-12-16T12:15:28;23.20;;;15.23;;
72053;SDS011;59918;51.280;7.950;2022-12-16T12:18:16;8.90;;;8.10;;
72053;SDS011;59918;51.280;7.950;2022-12-16T12:20:58;3.70;;;3.13;;
72053;SDS011;59918;51.280;7.950;2022-12-16T12:26:12;3.65;;;3.08;;
72053;SDS011;59918;51.280;7.950;2022-12-16T12:28:48;5.90;;;3.22;;
72053;SDS011;59918;51.280;7.950;2022-12-16T12:36:45;5.93;;;3.00;;
72053;SDS011;59918;51.280;7.950;2022-12-16T12:39:23;4.40;;;3.00;;
72053;SDS011;59918;51.280;7.950;2022-12-16T12:44:44;3.05;;;2.67;;
72053;SDS011;59918;51.280;7.950;2022-12-16T12:47:30;3.78;;;3.08;;
72053;SDS011;59918;51.280;7.950;2022-12-16T12:50:03;4.70;;;3.00;;
72053;SDS011;59918;51.280;7.950;2022-12-16T12:55:36;4.78;;;2.65;;
72053;SDS011;59918;51.280;7.950;2022-12-16T12:58:12;5.57;;;3.33;;
72053;SDS011;59918;51.280;7.950;2022-12-16T13:00:42;5.55;;;2.75;;
72053;SDS011;59918;51.280;7.950;2022-12-16T13:05:41;6.10;;;3.47;;
72053;SDS011;59918;51.280;7.950;2022-12-16T13:11:14;3.30;;;2.83;;
72053;SDS011;59918;51.280;7.950;2022-12-16T13:13:39;3.65;;;2.50;;
72053;SDS011;59918;51.280;7.950;2022-12-16T13:16:08;7.60;;;3.55;;
72053;SDS011;59918;51.280;7.950;2022-12-16T13:18:35;4.60;;;3.35;;
72053;SDS011;59918;51.280;7.950;2022-12-16T13:21:00;5.78;;;2.97;;
72053;SDS011;59918;51.280;7.950;2022-12-16T13:25:51;6.77;;;4.40;;
72053;SDS011;59918;51.280;7.950;2022-12-16T13:28:20;8.48;;;4.70;;
72053;SDS011;59918;51.280;7.950;2022-12-16T13:31:02;4.88;;;3.30;;
72053;SDS011;59918;51.280;7.950;2022-12-16T13:33:29;4.75;;;4.20;;
72053;SDS011;59918;51.280;7.950;2022-12-16T13:35:58;5.78;;;3.00;;
72053;SDS011;59918;51.280;7.950;2022-12-16T13:38:24;5.10;;;3.20;;
72053;SDS011;59918;51.280;7.950;2022-12-16T13:40:57;7.00;;;3.97;;
72053;SDS011;59918;51.280;7.950;2022-12-16T13:51:02;11.23;;;3.83;;
72053;SDS011;59918;51.280;7.950;2022-12-16T13:53:48;6.35;;;3.67;;
72053;SDS011;59918;51.280;7.950;2022-12-16T13:56:17;12.50;;;3.50;;
72053;SDS011;59918;51.280;7.950;2022-12-16T13:58:49;5.72;;;4.05;;
72053;SDS011;59918;51.280;7.950;2022-12-16T14:01:17;7.28;;;4.60;;
72053;SDS011;59918;51.280;7.950;2022-12-16T14:03:48;8.00;;;4.03;;
72053;SDS011;59918;51.280;7.950;2022-12-16T14:06:16;5.43;;;4.35;;
72053;SDS011;59918;51.280;7.950;2022-12-16T14:08:46;7.45;;;4.88;;
72053;SDS011;59918;51.280;7.950;2022-12-16T14:11:14;8.20;;;4.45;;
72053;SDS011;59918;51.280;7.950;2022-12-16T14:14:04;6.90;;;4.40;;
72053;SDS011;59918;51.280;7.950;2022-12-16T14:24:48;11.02;;;6.43;;
72053;SDS011;59918;51.280;7.950;2022-12-16T14:27:17;10.52;;;5.70;;
72053;SDS011;59918;51.280;7.950;2022-12-16T14:29:44;7.00;;;5.00;;
72053;SDS011;59918;51.280;7.950;2022-12-16T14:35:00;6.10;;;4.70;;
72053;SDS011;59918;51.280;7.950;2022-12-16T14:37:32;7.40;;;4.65;;
72053;SDS011;59918;51.280;7.950;2022-12-16T14:39:59;10.20;;;4.88;;
72053;SDS011;59918;51.280;7.950;2022-12-16T14:42:28;6.60;;;4.60;;
72053;SDS011;59918;51.280;7.950;2022-12-16T14:44:55;13.68;;;3.90;;
72053;SDS011;59918;51.280;7.950;2022-12-16T14:47:20;10.07;;;4.05;;
72053;SDS011;59918;51.280;7.950;2022-12-16T14:49:48;8.23;;;4.57;;
72053;SDS011;59918;51.280;7.950;2022-12-16T14:54:43;7.30;;;4.07;;
72053;SDS011;59918;51.280;7.950;2022-12-16T14:57:15;10.93;;;5.55;;
72053;SDS011;59918;51.280;7.950;2022-12-16T14:59:41;10.32;;;5.60;;
72053;SDS011;59918;51.280;7.950;2022-12-16T15:02:29;8.38;;;4.38;;
72053;SDS011;59918;51.280;7.950;2022-12-16T15:04:56;11.07;;;5.20;;
72053;SDS011;59918;51.280;7.950;2022-12-16T15:07:22;11.38;;;4.60;;
72053;SDS011;59918;51.280;7.950;2022-12-16T15:09:48;10.57;;;4.50;;
72053;SDS011;59918;51.280;7.950;2022-12-16T15:12:16;7.00;;;4.15;;
72053;SDS011;59918;51.280;7.950;2022-12-16T15:14:46;5.00;;;4.00;;
72053;SDS011;59918;51.280;7.950;2022-12-16T15:17:42;5.65;;;3.83;;
72053;SDS011;59918;51.280;7.950;2022-12-16T15:20:29;10.27;;;4.57;;
72053;SDS011;59918;51.280;7.950;2022-12-16T15:22:55;13.18;;;4.30;;
72053;SDS011;59918;51.280;7.950;2022-12-16T15:25:23;9.25;;;4.18;;
72053;SDS011;59918;51.280;7.950;2022-12-16T15:27:54;7.93;;;4.60;;
72053;SDS011;59918;51.280;7.950;2022-12-16T15:33:05;21.20;;;9.15;;
72053;SDS011;59918;51.280;7.950;2022-12-16T15:37:56;7.38;;;5.50;;
72053;SDS011;59918;51.280;7.950;2022-12-16T15:40:29;9.52;;;5.95;;
72053;SDS011;59918;51.280;7.950;2022-12-16T15:42:57;7.65;;;5.57;;
72053;SDS011;59918;51.280;7.950;2022-12-16T15:45:23;9.88;;;5.70;;
72053;SDS011;59918;51.280;7.950;2022-12-16T15:47:51;8.75;;;5.72;;
72053;SDS011;59918;51.280;7.950;2022-12-16T15:50:18;7.35;;;4.97;;
72053;SDS011;59918;51.280;7.950;2022-12-16T15:52:45;7.63;;;5.38;;
72053;SDS011;59918;51.280;7.950;2022-12-16T15:55:20;10.00;;;5.78;;
72053;SDS011;59918;51.280;7.950;2022-12-16T15:57:55;8.45;;;4.57;;
72053;SDS011;59918;51.280;7.950;2022-12-16T16:02:49;12.15;;;4.95;;
72053;SDS011;59918;51.280;7.950;2022-12-16T16:05:17;22.98;;;10.15;;
72053;SDS011;59918;51.280;7.950;2022-12-16T16:07:44;13.90;;;7.43;;
72053;SDS011;59918;51.280;7.950;2022-12-16T16:10:14;9.85;;;5.63;;
72053;SDS011;59918;51.280;7.950;2022-12-16T16:12:41;16.27;;;6.87;;
72053;SDS011;59918;51.280;7.950;2022-12-16T16:15:07;17.92;;;5.97;;
72053;SDS011;59918;51.280;7.950;2022-12-16T16:17:34;43.38;;;15.38;;
72053;SDS011;59918;51.280;7.950;2022-12-16T16:19:59;24.05;;;9.70;;
72053;SDS011;59918;51.280;7.950;2022-12-16T16:22:24;17.85;;;7.90;;
72053;SDS011;59918;51.280;7.950;2022-12-16T16:24:50;6.60;;;4.35;;
72053;SDS011;59918;51.280;7.950;2022-12-16T16:27:15;7.75;;;5.00;;
72053;SDS011;59918;51.280;7.950;2022-12-16T16:29:42;10.52;;;5.07;;
72053;SDS011;59918;51.280;7.950;2022-12-16T16:32:08;6.85;;;4.50;;
72053;SDS011;59918;51.280;7.950;2022-12-16T16:34:33;7.50;;;4.40;;
72053;SDS011;59918;51.280;7.950;2022-12-16T16:36:59;9.88;;;5.25;;
72053;SDS011;59918;51.280;7.950;2022-12-16T16:39:24;8.45;;;5.65;;
72053;SDS011;59918;51.280;7.950;2022-12-16T16:41:49;11.95;;;6.75;;
72053;SDS011;59918;51.280;7.950;2022-12-16T16:44:15;12.30;;;6.18;;
72053;SDS011;59918;51.280;7.950;2022-12-16T16:46:40;11.68;;;5.53;;
72053;SDS011;59918;51.280;7.950;2022-12-16T16:49:09;14.30;;;5.38;;